Gaschem Rhone — DCVJ2 — position and weather

sailwx.info

Track history (hours):
 
Tides and Currents Weather Stations Pressure Air Temp Water Temp Dewpoint Dewpoint Depression Visibility Wind Speed Wind Dir Waves Ship Positions

Gaschem Rhone

Last reported at 2018-Feb-21 12:00 UTC. Time now 2018-Feb-24 23:30 UTC.
Position N 30°30' E 121°12'.

Wind from 310 at 5 knots

Barometer 1026.9 mb
Air temperature 9.0 ° C
Visibility: greater than 2.2 NM
Dewpoint 4.9 ° C

Date/timePositionNaut miles runAvg speedWind from/ knotsBaromVisibWave heightAir tempDewpointWater temp
2018-Feb-21 12:00N 30°30' E 121°12'26 0.6 310 / 51026.9 2.2 9.0 4.9
2018-Feb-19 14:34N 30°30' E 121°42'113.4
2018-Feb-19 14:29N 30°30' E 121°44'1912.6
2018-Feb-19 13:01N 30°32' E 122°05'1311.3
2018-Feb-19 11:52N 30°42' E 122°14'5394152.5
2018-Feb-18 00:29N 36°25' E 014°34'  
2018-Feb-14 14:45N 30°56' E 122°53'1414.5
2018-Feb-14 13:49N 30°53' E 122°38'914.5
2018-Feb-14 13:11N 30°51' E 122°28'1112.6
2018-Feb-14 12:21N 30°45' E 122°18'1713.0
2018-Feb-14 11:03N 30°32' E 122°05'614.1
2018-Feb-14 10:39N 30°31' E 121°59'  
2018-Feb-12 00:00N 30°12' E 121°42'   340 / 121033.6 2.2 4.8-7.1
Track history (hours):
 
Tides and Currents Weather Stations Pressure Air Temp Water Temp Dewpoint Dewpoint Depression Visibility Wind Speed Wind Dir Waves Ship Positions

Gaschem Rhone

Last reported at 2018-Feb-21 12:00 UTC. Time now 2018-Feb-24 23:30 UTC.
Position N 30°30' E 121°12'.

Wind from 310 at 5 knots

Barometer 1026.9 mb
Air temperature 9.0 ° C
Visibility: greater than 2.2 NM
Dewpoint 4.9 ° C

Date/timePositionNaut miles runAvg speedWind from/ knotsBaromVisibWave heightAir tempDewpointWater temp
2018-Feb-21 12:00N 30°30' E 121°12'26 0.6 310 / 51026.9 2.2 9.0 4.9
2018-Feb-19 14:34N 30°30' E 121°42'113.4
2018-Feb-19 14:29N 30°30' E 121°44'1912.6
2018-Feb-19 13:01N 30°32' E 122°05'1311.3
2018-Feb-19 11:52N 30°42' E 122°14'5394152.5
2018-Feb-18 00:29N 36°25' E 014°34'  
2018-Feb-14 14:45N 30°56' E 122°53'1414.5
2018-Feb-14 13:49N 30°53' E 122°38'914.5
2018-Feb-14 13:11N 30°51' E 122°28'1112.6
2018-Feb-14 12:21N 30°45' E 122°18'1713.0
2018-Feb-14 11:03N 30°32' E 122°05'614.1
2018-Feb-14 10:39N 30°31' E 121°59'  
2018-Feb-12 00:00N 30°12' E 121°42'   340 / 121033.6 2.2 4.8-7.1

Dump ship's entire track history